CheckWX is a tool to help pilots better visualize weather data.  It is not intended as a substitute for an official pre-flight weather briefing.

05:15:18 UTC

KRIL TAF
Rifle Garfield County Airport
Rifle, Colorado, USA
KRIL 240311Z 2403/2424 27010KT P6SM OVC070 FM240500 VRB05KT P6SM BKN110 FM240700 VRB03KT P6SM BKN200

Feb-24@
03:00 UTC

Feb-24 @ 03:00 UTC

Feb-24@
05:00 UTC

Feb-24 @ 05:00 UTC

KRIL 240311Z 2403/2424 27010KT P6SM OVC070

Expired

Wind
  • 270° at 10 KTS
Cloud Levels
  • Overcast at 7,000' AGL

Feb-24@
05:00 UTC

Feb-24 @ 05:00 UTC

Feb-24@
07:00 UTC

Feb-24 @ 07:00 UTC

FM240500 VRB05KT P6SM BKN110

From

From Standard forecast or significant change

Wind
  • Variable at 5 KTS
Cloud Levels
  • Broken at 11,000' AGL

Feb-24@
07:00 UTC

Feb-24 @ 07:00 UTC

Feb-25@
00:00 UTC

Feb-25 @ 00:00 UTC

FM240700 VRB03KT P6SM BKN200

From

From Standard forecast or significant change

Wind
  • Variable at 3 KTS
Cloud Levels
  • Broken at 20,000' AGL